createdAt,value
2019-06-20T20:38:51.336Z,16.80
2019-06-20T20:41:55.641Z,17.03
2019-06-20T20:44:59.939Z,19.20
2019-06-20T20:48:04.485Z,16.23
2019-06-20T20:51:08.773Z,18.10
2019-06-20T20:54:13.154Z,20.00
2019-06-20T20:57:17.554Z,17.03
2019-06-20T21:00:27.251Z,18.40
2019-06-20T21:03:31.696Z,21.53
2019-06-20T21:06:36.074Z,21.00
2019-06-20T21:09:40.439Z,19.27
2019-06-20T21:12:44.848Z,18.63
2019-06-20T21:15:49.249Z,22.90
2019-06-20T21:18:53.584Z,18.33
2019-06-20T21:21:57.961Z,20.47
2019-06-20T21:25:02.408Z,21.17
2019-06-20T21:28:06.852Z,20.50
2019-06-20T21:31:11.227Z,23.77
2019-06-20T21:34:15.564Z,21.50
2019-06-20T21:37:19.875Z,21.23
2019-06-20T21:40:24.178Z,20.47
2019-06-20T21:43:28.509Z,24.67
2019-06-20T21:46:33.879Z,23.47
2019-06-20T21:49:38.205Z,22.33
2019-06-20T21:52:42.519Z,23.33
2019-06-20T21:55:46.810Z,21.67
2019-06-20T21:58:51.127Z,23.03
2019-06-20T22:01:55.442Z,25.10
2019-06-20T22:05:00.218Z,24.77
2019-06-20T22:08:05.108Z,24.77
2019-06-20T22:11:09.400Z,23.90
2019-06-20T22:14:13.705Z,24.27
2019-06-20T22:17:18.025Z,26.13
2019-06-20T22:20:23.060Z,26.10
2019-06-20T22:23:27.361Z,23.43
2019-06-20T22:26:31.652Z,26.43
2019-06-20T22:29:36.028Z,31.60
2019-06-20T22:32:40.388Z,27.17
2019-06-20T22:35:45.983Z,33.80
2019-06-20T22:38:50.504Z,25.27
2019-06-20T22:41:54.797Z,26.33
2019-06-20T22:44:59.102Z,29.17
2019-06-20T22:48:03.481Z,27.40
2019-06-20T22:51:07.774Z,28.57
2019-06-20T22:54:12.077Z,25.50
2019-06-20T22:57:16.374Z,23.37
2019-06-20T23:00:20.860Z,22.37
2019-06-20T23:03:25.201Z,21.57
2019-06-20T23:06:29.502Z,22.27
2019-06-20T23:09:33.801Z,21.47
2019-06-20T23:12:38.106Z,24.13
2019-06-20T23:15:42.478Z,20.23
2019-06-20T23:18:46.785Z,24.97
2019-06-20T23:21:51.079Z,23.00
2019-06-20T23:24:56.349Z,22.40
2019-06-20T23:28:00.642Z,23.40
2019-06-20T23:31:05.118Z,20.70
2019-06-20T23:34:09.425Z,19.77
2019-06-20T23:37:14.585Z,21.07
2019-06-20T23:40:20.497Z,23.87
2019-06-20T23:43:24.806Z,27.33
2019-06-20T23:46:29.127Z,24.07
2019-06-20T23:49:33.435Z,26.33
2019-06-20T23:52:48.452Z,24.77
2019-06-20T23:55:52.834Z,24.47
2019-06-20T23:58:57.157Z,27.17
